Time;durP1;ratioP1;P1;durP2;ratioP2;P2;SDS_P1;SDS_P2;PMS_P1;PMS_P2;Temp;Humidity;BMP_temperature;BMP_pressure;BME280_temperature;BME280_humidity;BME280_pressure;Samples;Min_cycle;Max_cycle;Signal;HPM_P1;HPM_P2
2021/03/23 00:00:17;;;;;;;37.70;5.50;;;;;;;3.81;83.91;100570.03;5106279;28;20055;-63
2021/03/23 00:02:51;;;;;;;27.75;5.30;;;;;;;3.87;83.50;100553.88;5106158;28;20023;-63
2021/03/23 00:05:17;;;;;;;31.30;4.55;;;;;;;3.89;83.49;100551.31;5106038;28;20032;-63
2021/03/23 00:07:42;;;;;;;36.30;5.35;;;;;;;3.88;83.34;100553.06;5106089;28;20034;-64
2021/03/23 00:10:10;;;;;;;29.52;3.92;;;;;;;3.83;83.40;100546.94;5105906;28;20035;-63
2021/03/23 00:12:36;;;;;;;30.27;4.75;;;;;;;3.81;83.75;100543.47;5105943;28;20020;-63
2021/03/23 00:15:03;;;;;;;28.27;4.43;;;;;;;3.71;84.21;100527.84;5105793;28;20031;-64
2021/03/23 00:17:29;;;;;;;28.50;4.25;;;;;;;3.80;84.39;100546.88;5105740;28;20032;-64
2021/03/23 00:19:54;;;;;;;23.05;4.43;;;;;;;3.82;84.54;100556.34;5105934;28;20020;-64
2021/03/23 00:22:19;;;;;;;22.80;3.53;;;;;;;3.84;84.81;100556.38;5121475;28;20024;-64
2021/03/23 00:24:45;;;;;;;31.90;4.57;;;;;;;3.85;84.82;100558.09;5105708;28;20035;-63
2021/03/23 00:27:10;;;;;;;33.97;5.50;;;;;;;3.84;84.96;100548.66;5105747;28;20424;-64
2021/03/23 00:29:35;;;;;;;30.15;4.35;;;;;;;3.83;84.99;100550.34;5105535;28;20032;-63
2021/03/23 00:32:05;;;;;;;26.80;3.83;;;;;;;3.81;85.04;100559.75;5105480;28;20043;-64
2021/03/23 00:34:30;;;;;;;32.17;4.78;;;;;;;3.83;84.89;100560.63;5105465;28;20027;-63
2021/03/23 00:36:55;;;;;;;30.90;5.80;;;;;;;3.77;85.07;100567.34;5105471;28;20026;-62
2021/03/23 00:39:21;;;;;;;33.58;5.00;;;;;;;3.80;84.81;100585.41;5103893;28;20036;-62
2021/03/23 00:41:46;;;;;;;27.52;4.80;;;;;;;3.76;84.83;100591.28;5105444;28;20024;-63
2021/03/23 00:44:14;;;;;;;31.55;4.80;;;;;;;3.75;84.62;100584.41;5105070;28;20024;-63
2021/03/23 00:46:39;;;;;;;40.60;5.70;;;;;;;3.70;84.54;100589.44;5104748;28;20048;-63
2021/03/23 00:49:04;;;;;;;36.05;4.68;;;;;;;3.72;84.50;100586.06;5105194;28;20417;-62
2021/03/23 00:51:30;;;;;;;37.97;6.38;;;;;;;3.67;84.37;100579.13;5105053;28;20023;-63
2021/03/23 00:53:55;;;;;;;40.20;4.68;;;;;;;3.60;84.54;100580.66;5104971;28;20016;-62
2021/03/23 00:56:20;;;;;;;38.60;4.55;;;;;;;3.63;84.72;100580.72;5104971;28;20394;-62
2021/03/23 00:58:46;;;;;;;34.75;5.80;;;;;;;3.61;84.76;100563.56;5104717;28;20458;-62
2021/03/23 01:01:11;;;;;;;33.88;5.75;;;;;;;3.61;84.82;100561.00;5104869;28;20028;-63
2021/03/23 01:03:36;;;;;;;30.90;6.05;;;;;;;3.60;84.98;100562.69;5104751;28;20024;-61
2021/03/23 01:06:02;;;;;;;35.70;5.22;;;;;;;3.58;85.01;100562.66;5104841;28;20028;-62
2021/03/23 01:08:27;;;;;;;37.88;6.18;;;;;;;3.56;85.03;100563.47;5120160;28;20020;-63
2021/03/23 01:10:53;;;;;;;41.65;5.65;;;;;;;3.56;85.38;100568.59;5104917;28;20349;-63
2021/03/23 01:13:18;;;;;;;40.03;5.68;;;;;;;3.59;85.20;100576.38;5104615;28;20076;-62
2021/03/23 01:15:44;;;;;;;49.75;5.32;;;;;;;3.57;85.22;100573.78;5104727;28;20027;-62
2021/03/23 01:18:09;;;;;;;29.70;5.30;;;;;;;3.58;84.97;100566.91;5104465;28;20024;-63
2021/03/23 01:20:35;;;;;;;35.17;5.72;;;;;;;3.53;84.82;100574.50;5104640;28;20020;-62
2021/03/23 01:23:01;;;;;;;45.63;5.70;;;;;;;3.53;84.76;100573.66;5104564;28;20048;-62
2021/03/23 01:25:26;;;;;;;33.92;5.90;;;;;;;3.50;84.61;100579.56;5104313;28;20073;-63
2021/03/23 01:27:52;;;;;;;39.97;5.78;;;;;;;3.52;84.12;100577.03;5104315;28;20015;-63
2021/03/23 01:30:23;;;;;;;35.20;4.97;;;;;;;3.51;84.61;100568.50;5104197;28;20050;-62
2021/03/23 01:32:49;;;;;;;30.98;5.22;;;;;;;3.46;84.66;100573.53;5104065;28;20084;-63
2021/03/23 01:35:15;;;;;;;43.83;7.22;;;;;;;3.45;84.98;100576.91;5102620;28;20038;-63
2021/03/23 01:37:41;;;;;;;36.42;5.55;;;;;;;3.42;85.07;100570.84;5104366;28;20032;-63
2021/03/23 01:40:07;;;;;;;32.38;5.72;;;;;;;3.47;85.03;100579.50;5104014;28;20080;-63
2021/03/23 01:42:48;;;;;;;23.63;5.22;;;;;;;3.44;85.29;100579.44;5104200;28;20042;-62
2021/03/23 01:45:22;;;;;;;46.88;7.35;;;;;;;3.43;84.83;100568.31;5103846;28;20076;-63
2021/03/23 01:47:49;;;;;;;35.15;5.60;;;;;;;3.41;84.76;100563.97;5103902;28;20104;-63
2021/03/23 01:50:16;;;;;;;35.28;5.55;;;;;;;3.43;84.48;100558.06;5103597;28;20096;-63
2021/03/23 01:52:45;;;;;;;33.58;5.18;;;;;;;3.46;84.15;100567.50;5119651;28;20067;-63
2021/03/23 01:55:11;;;;;;;28.30;5.20;;;;;;;3.44;83.94;100571.72;5103707;28;20024;-62
2021/03/23 01:57:38;;;;;;;42.35;7.15;;;;;;;3.39;84.28;100563.94;5103866;28;20031;-63
2021/03/23 02:00:08;;;;;;;41.83;5.90;;;;;;;3.37;84.18;100563.00;5103563;28;20024;-63
2021/03/23 02:02:33;;;;;;;26.80;5.45;;;;;;;3.35;83.82;100564.69;5103735;28;20115;-63
2021/03/23 02:04:59;;;;;;;33.17;6.68;;;;;;;3.36;83.61;100576.69;5103589;28;20024;-63
2021/03/23 02:07:24;;;;;;;32.63;6.05;;;;;;;3.34;83.46;100562.94;5103570;28;20380;-63
2021/03/23 02:09:55;;;;;;;31.40;5.85;;;;;;;3.35;83.42;100562.13;5103529;28;20059;-63
2021/03/23 02:12:26;;;;;;;29.65;6.30;;;;;;;3.32;83.17;100554.34;5103500;28;20020;-64
2021/03/23 02:14:52;;;;;;;40.27;6.67;;;;;;;3.29;83.37;100554.28;5103582;28;20035;-63
2021/03/23 02:17:23;;;;;;;35.67;6.45;;;;;;;3.28;83.49;100565.38;5103259;28;20260;-63
2021/03/23 02:20:14;;;;;;;37.77;5.80;;;;;;;3.24;83.48;100550.75;5103694;28;20020;-63
2021/03/23 02:22:45;;;;;;;30.55;5.10;;;;;;;3.21;83.68;100554.94;5103522;28;20086;-63
2021/03/23 02:25:17;;;;;;;36.63;5.55;;;;;;;3.19;84.30;100561.75;5103337;28;20108;-63
2021/03/23 02:27:43;;;;;;;31.80;4.87;;;;;;;3.21;84.87;100564.38;5103594;28;20028;-63
2021/03/23 02:30:16;;;;;;;34.65;7.22;;;;;;;3.16;85.26;100561.69;5103222;28;20326;-63
2021/03/23 02:32:42;;;;;;;31.65;6.40;;;;;;;3.17;85.23;100575.38;5103112;28;20036;-63
2021/03/23 02:35:08;;;;;;;51.10;6.75;;;;;;;3.19;85.30;100572.03;5103389;28;20028;-63
2021/03/23 02:37:33;;;;;;;22.45;5.30;;;;;;;3.20;85.49;100567.75;5103388;28;20024;-63
2021/03/23 02:39:58;;;;;;;29.52;5.53;;;;;;;3.21;85.25;100562.66;5103384;28;20460;-64
2021/03/23 02:42:24;;;;;;;33.58;6.88;;;;;;;3.25;85.13;100562.72;5103348;28;20058;-64
2021/03/23 02:44:49;;;;;;;25.17;6.15;;;;;;;3.26;84.98;100551.66;5103064;28;20027;-63
2021/03/23 02:47:17;;;;;;;48.38;6.38;;;;;;;3.29;84.47;100551.72;5102976;28;20059;-63
2021/03/23 02:49:42;;;;;;;27.00;5.78;;;;;;;3.31;84.29;100558.63;5103279;28;20115;-63
2021/03/23 02:52:10;;;;;;;31.88;5.85;;;;;;;3.32;84.48;100556.94;5103154;28;20445;-64
2021/03/23 02:54:36;;;;;;;37.85;6.28;;;;;;;3.33;84.29;100556.09;5103112;28;20122;-63
2021/03/23 02:57:01;;;;;;;30.05;6.63;;;;;;;3.32;84.72;100562.06;5118845;28;20356;-64
2021/03/23 02:59:27;;;;;;;25.65;4.35;;;;;;;3.28;84.81;100562.78;5103128;28;20017;-63
2021/03/23 03:01:52;;;;;;;35.05;6.03;;;;;;;3.23;84.91;100552.44;5104378;28;20511;-63
2021/03/23 03:04:17;;;;;;;31.25;5.63;;;;;;;3.25;85.19;100561.03;5107181;28;20028;-63
2021/03/23 03:06:43;;;;;;;26.73;5.38;;;;;;;3.24;85.40;100563.56;5107149;28;20068;-63
2021/03/23 03:09:08;;;;;;;36.35;6.40;;;;;;;3.18;85.41;100562.56;5106924;28;20077;-63
2021/03/23 03:11:34;;;;;;;34.60;5.43;;;;;;;3.18;85.48;100562.56;5107165;28;20275;-63
2021/03/23 03:13:59;;;;;;;28.27;5.22;;;;;;;3.17;85.46;100565.97;5106857;28;20023;-63
2021/03/23 03:16:25;;;;;;;27.10;5.85;;;;;;;3.17;85.53;100568.56;5106792;28;20049;-63
2021/03/23 03:18:50;;;;;;;26.98;5.07;;;;;;;3.17;85.53;100568.56;5107073;28;20023;-63
2021/03/23 03:21:16;;;;;;;31.35;6.10;;;;;;;3.15;85.60;100571.88;5106786;28;20519;-64
2021/03/23 03:23:42;;;;;;;24.83;5.05;;;;;;;3.13;85.69;100574.41;5107095;28;20020;-63
2021/03/23 03:26:07;;;;;;;21.80;5.50;;;;;;;3.10;85.93;100570.09;5106873;28;20031;-63
2021/03/23 03:28:34;;;;;;;40.40;6.82;;;;;;;3.11;85.84;100578.66;5105419;28;20020;-63
2021/03/23 03:31:00;;;;;;;34.42;6.60;;;;;;;3.13;85.82;100578.69;5106461;28;20053;-62
2021/03/23 03:33:26;;;;;;;32.97;6.00;;;;;;;3.14;85.71;100575.28;5106918;28;20043;-63
2021/03/23 03:35:52;;;;;;;19.15;4.18;;;;;;;3.15;85.83;100577.03;5106669;28;20026;-63
2021/03/23 03:38:20;;;;;;;34.03;5.70;;;;;;;3.12;85.78;100572.69;5106635;28;20139;-63
2021/03/23 03:40:51;;;;;;;38.50;6.90;;;;;;;3.13;85.70;100576.13;5106708;28;20035;-62
2021/03/23 03:43:19;;;;;;;36.55;7.10;;;;;;;3.09;85.91;100588.00;5106500;28;20024;-63
2021/03/23 03:45:45;;;;;;;47.70;7.32;;;;;;;3.08;85.83;100584.56;5106108;28;20048;-62
2021/03/23 03:48:11;;;;;;;34.28;7.50;;;;;;;3.05;85.73;100589.63;5106370;28;20038;-62
2021/03/23 03:50:36;;;;;;;38.08;6.82;;;;;;;3.07;85.94;100594.78;5105009;28;20048;-62
2021/03/23 03:53:03;;;;;;;39.45;6.43;;;;;;;3.06;85.97;100590.50;5106337;28;20052;-62
2021/03/23 03:55:32;;;;;;;30.58;6.10;;;;;;;3.05;86.28;100589.63;5106122;28;20031;-62
2021/03/23 03:57:58;;;;;;;30.88;6.22;;;;;;;3.07;86.33;100584.53;5106359;28;20346;-63
2021/03/23 04:00:26;;;;;;;29.00;5.97;;;;;;;3.06;86.44;100583.69;5106187;28;20432;-63
2021/03/23 04:02:52;;;;;;;30.40;5.90;;;;;;;3.08;86.42;100586.28;5105981;28;20043;-62
2021/03/23 04:05:26;;;;;;;27.45;5.97;;;;;;;3.13;86.52;100586.41;5105942;28;20039;-62
2021/03/23 04:07:52;;;;;;;31.02;6.38;;;;;;;3.13;86.30;100589.81;5106250;28;20503;-63
2021/03/23 04:10:19;;;;;;;32.25;5.97;;;;;;;3.14;86.50;100585.56;5105847;28;20464;-62
2021/03/23 04:12:45;;;;;;;32.33;6.78;;;;;;;3.13;86.33;100591.53;5105564;28;20028;-62
2021/03/23 04:15:15;;;;;;;37.35;7.30;;;;;;;3.14;86.51;100594.13;5105737;28;20081;-63
2021/03/23 04:17:40;;;;;;;37.47;7.35;;;;;;;3.11;86.64;100591.50;5105568;28;20024;-62
2021/03/23 04:20:07;;;;;;;46.35;7.60;;;;;;;3.13;86.69;100589.81;5105837;28;20020;-62
2021/03/23 04:22:32;;;;;;;47.60;8.95;;;;;;;3.18;86.56;100601.06;5105602;28;20024;-63
2021/03/23 04:24:57;;;;;;;45.58;8.40;;;;;;;3.20;86.60;100586.59;5105586;28;20047;-63
2021/03/23 04:27:23;;;;;;;57.10;10.52;;;;;;;3.19;86.60;100587.44;5105702;28;20035;-62
2021/03/23 04:29:48;;;;;;;53.17;11.30;;;;;;;3.28;86.71;100593.59;5105380;28;20541;-62
2021/03/23 04:32:13;;;;;;;52.17;11.45;;;;;;;3.33;86.67;100598.03;5105305;28;20049;-63
2021/03/23 04:34:39;;;;;;;47.03;9.57;;;;;;;3.37;86.70;100603.22;5105454;28;20103;-62
2021/03/23 04:37:04;;;;;;;51.40;11.82;;;;;;;3.42;86.72;100599.94;5105414;28;20040;-63
2021/03/23 04:39:30;;;;;;;64.85;13.10;;;;;;;3.47;86.53;100597.47;5105170;28;20020;-61
2021/03/23 04:41:56;;;;;;;75.32;14.52;;;;;;;3.52;86.54;100600.16;5105685;28;20024;-63
2021/03/23 04:44:21;;;;;;;74.75;13.77;;;;;;;3.56;86.51;100605.38;5105077;28;20061;-64
2021/03/23 04:46:46;;;;;;;73.28;12.18;;;;;;;3.65;86.39;100603.88;5104815;28;20083;-63
2021/03/23 04:49:12;;;;;;;61.45;11.98;;;;;;;3.69;86.45;100596.28;5105210;28;20115;-63
2021/03/23 04:51:37;;;;;;;70.65;11.95;;;;;;;3.76;86.31;100605.00;5105046;28;20024;-63
2021/03/23 04:54:08;;;;;;;72.68;13.05;;;;;;;3.83;85.91;100608.59;5105038;28;20365;-63
2021/03/23 04:56:36;;;;;;;83.05;14.15;;;;;;;3.86;85.97;100611.22;5105088;28;20059;-63
2021/03/23 04:59:03;;;;;;;90.70;13.02;;;;;;;3.74;86.22;100601.53;5104781;28;20072;-63
2021/03/23 05:01:28;;;;;;;86.53;13.45;;;;;;;3.87;86.24;100612.94;5104608;28;20023;-63
2021/03/23 05:03:56;;;;;;;97.53;16.10;;;;;;;3.91;86.20;100624.16;5104826;28;20020;-63
2021/03/23 05:06:23;;;;;;;119.65;16.27;;;;;;;3.95;86.01;100629.41;5104894;28;20059;-64
2021/03/23 05:08:49;;;;;;;45.58;10.73;;;;;;;3.96;86.19;100636.25;5104897;28;20168;-63
2021/03/23 05:11:18;;;;;;;80.90;14.40;;;;;;;4.02;86.05;100642.38;5104665;28;20499;-64
2021/03/23 05:13:43;;;;;;;103.95;15.90;;;;;;;3.99;85.87;100630.34;5104452;28;20020;-63
2021/03/23 05:16:09;;;;;;;104.72;17.73;;;;;;;4.03;85.97;100637.28;5104268;28;20035;-64
2021/03/23 05:18:34;;;;;;;106.45;15.27;;;;;;;4.03;85.86;100639.84;5104742;28;20074;-64
2021/03/23 05:20:59;;;;;;;139.68;18.77;;;;;;;4.04;86.05;100649.28;5102300;28;20566;-63
2021/03/23 05:23:25;;;;;;;89.82;15.07;;;;;;;4.10;85.89;100653.72;5088966;23;20061;-64
2021/03/23 05:25:51;;;;;;;105.70;15.70;;;;;;;4.16;85.91;100656.41;5083556;28;20047;-64
2021/03/23 05:28:18;;;;;;;106.72;16.10;;;;;;;4.18;85.76;100648.72;5084316;28;20028;-64
2021/03/23 05:30:43;;;;;;;68.82;13.02;;;;;;;4.20;85.87;100647.91;5084194;28;20028;-64
2021/03/23 05:33:11;;;;;;;91.22;14.13;;;;;;;4.25;85.80;100647.16;5082731;28;20035;-64
2021/03/23 05:35:37;;;;;;;104.97;15.55;;;;;;;4.32;85.44;100654.16;5084047;28;20044;-63
2021/03/23 05:38:03;;;;;;;70.85;16.10;;;;;;;4.27;85.45;100648.94;5082808;28;20056;-63
2021/03/23 05:40:33;;;;;;;86.22;16.48;;;;;;;4.27;85.40;100651.50;5084195;28;20025;-67
2021/03/23 05:43:20;;;;;;;95.68;14.63;;;;;;;4.32;85.44;100661.88;5082584;28;20024;-64
2021/03/23 05:45:46;;;;;;;111.68;19.15;;;;;;;4.38;85.19;100654.28;5083888;28;20553;-64
2021/03/23 05:48:15;;;;;;;85.25;14.90;;;;;;;4.39;85.46;100661.19;5082624;28;20083;-63
2021/03/23 05:50:46;;;;;;;85.20;15.40;;;;;;;4.44;85.40;100663.84;5083902;28;20035;-64
2021/03/23 05:53:26;;;;;;;96.90;15.57;;;;;;;4.43;85.24;100662.09;5082519;28;20130;-64
2021/03/23 05:55:52;;;;;;;106.90;17.15;;;;;;;4.40;85.45;100650.06;5083754;28;20062;-63
2021/03/23 05:58:25;;;;;;;95.68;15.93;;;;;;;4.46;85.50;100662.16;5083862;28;20017;-64
2021/03/23 06:01:03;;;;;;;67.25;15.57;;;;;;;4.53;85.29;100668.31;5083775;28;20044;-64
2021/03/23 06:03:35;;;;;;;86.38;15.18;;;;;;;4.59;85.31;100661.59;5083798;28;20024;-65
2021/03/23 06:06:12;;;;;;;68.80;14.57;;;;;;;4.65;85.26;100663.41;5083594;28;20021;-63
2021/03/23 06:08:37;;;;;;;60.92;14.68;;;;;;;4.66;85.04;100672.00;5083311;28;20032;-64
2021/03/23 06:11:06;;;;;;;88.43;15.88;;;;;;;4.69;85.07;100670.38;5082287;28;20190;-64
2021/03/23 06:13:42;;;;;;;65.15;12.30;;;;;;;4.73;85.03;100675.56;5083644;28;20062;-66
2021/03/23 06:16:44;;;;;;;56.20;11.88;;;;;;;4.75;85.19;100684.16;5083451;28;20020;-69
2021/03/23 06:19:30;;;;;;;59.53;13.88;;;;;;;4.80;85.14;100680.00;5083016;28;20029;-64
2021/03/23 06:22:00;;;;;;;41.45;12.18;;;;;;;4.82;84.91;100676.59;5082826;28;20108;-65
2021/03/23 06:24:35;;;;;;;53.20;12.57;;;;;;;4.86;85.01;100684.41;5083298;28;20058;-65
2021/03/23 06:27:34;;;;;;;54.58;13.63;;;;;;;4.89;85.11;100677.59;5083479;28;20032;-65
2021/03/23 06:30:18;;;;;;;50.08;12.75;;;;;;;4.95;85.10;100687.16;5075962;28;20037;-64
2021/03/23 06:32:48;;;;;;;39.83;11.55;;;;;;;4.99;85.01;100685.50;5083212;28;20024;-64
2021/03/23 06:35:19;;;;;;;48.25;13.52;;;;;;;5.04;84.85;100683.88;5083338;28;20031;-64
2021/03/23 06:37:45;;;;;;;42.47;11.18;;;;;;;5.15;84.90;100691.78;5083505;28;20387;-66
2021/03/23 06:40:10;;;;;;;43.65;11.10;;;;;;;5.22;84.60;100691.09;5083407;28;20044;-64
2021/03/23 06:42:40;;;;;;;49.70;12.13;;;;;;;5.28;84.71;100705.75;5083481;28;20025;-64
2021/03/23 06:45:27;;;;;;;58.42;12.98;;;;;;;5.35;84.58;100709.31;5083126;28;20020;-64
2021/03/23 06:47:54;;;;;;;48.80;10.82;;;;;;;5.34;84.26;100711.03;5083293;28;20023;-64
2021/03/23 06:50:22;;;;;;;67.40;12.45;;;;;;;5.30;84.17;100710.09;5083313;28;20031;-65
2021/03/23 06:53:05;;;;;;;77.97;12.48;;;;;;;5.28;84.00;100716.06;5082131;28;20032;-64
2021/03/23 06:55:30;;;;;;;50.63;11.32;;;;;;;5.31;84.08;100717.00;5083035;28;20023;-64
2021/03/23 06:57:56;;;;;;;55.47;10.75;;;;;;;5.36;84.23;100713.63;5083434;28;20016;-63
2021/03/23 07:00:32;;;;;;;36.35;10.15;;;;;;;5.34;83.92;100723.91;5083395;28;20365;-64
2021/03/23 07:03:24;;;;;;;53.97;12.70;;;;;;;5.37;83.87;100716.22;5083381;28;20031;-64
2021/03/23 07:05:49;;;;;;;55.00;11.48;;;;;;;5.35;83.86;100717.94;5081959;28;20016;-64
2021/03/23 07:08:20;;;;;;;72.50;11.65;;;;;;;5.39;83.99;100718.81;5083193;28;20025;-65
2021/03/23 07:10:52;;;;;;;43.17;10.40;;;;;;;5.45;83.66;100719.81;5083030;28;20043;-64
2021/03/23 07:13:26;;;;;;;57.55;11.80;;;;;;;5.42;83.35;100734.31;5083222;28;20025;-65
2021/03/23 07:16:10;;;;;;;59.60;11.60;;;;;;;5.43;83.57;100725.78;5083226;28;20035;-65
2021/03/23 07:18:39;;;;;;;50.10;9.73;;;;;;;5.43;83.51;100720.63;5083161;28;20016;-65
2021/03/23 07:21:10;;;;;;;36.75;10.05;;;;;;;5.52;83.54;100727.63;5083062;28;20017;-64
2021/03/23 07:23:40;;;;;;;44.17;10.25;;;;;;;5.55;83.75;100728.56;5100016;28;20183;-64
2021/03/23 07:26:33;;;;;;;35.03;11.13;;;;;;;5.65;83.79;100726.16;5102749;28;20024;-64
2021/03/23 07:29:10;;;;;;;;;;;;;;;5.64;83.24;100730.44;5103261;28;20107;-65
2021/03/23 07:31:51;;;;;;;27.33;10.05;;;;;;;5.62;83.12;100732.13;5102799;28;20000;-65
2021/03/23 07:34:26;;;;;;;23.35;10.35;;;;;;;5.64;83.37;100740.72;5102928;28;20024;-65
2021/03/23 07:37:05;;;;;;;50.78;11.40;;;;;;;5.72;83.12;100748.59;5102927;28;20035;-66
2021/03/23 07:39:53;;;;;;;32.20;10.95;;;;;;;5.67;82.97;100757.97;5102816;28;20044;-66
2021/03/23 07:42:26;;;;;;;35.88;11.65;;;;;;;5.64;83.14;100756.19;5102757;28;20031;-66
2021/03/23 07:45:01;;;;;;;35.53;9.55;;;;;;;5.67;82.60;100758.81;5102743;28;20046;-65
2021/03/23 07:47:40;;;;;;;36.63;9.95;;;;;;;5.64;82.16;100755.34;5102948;28;20484;-66
2021/03/23 07:50:11;;;;;;;39.30;10.07;;;;;;;5.58;82.32;100763.81;5105871;28;20031;-65
2021/03/23 07:52:49;;;;;;;91.70;14.50;;;;;;;5.57;82.27;100764.66;5106424;28;20055;-65
2021/03/23 07:55:21;;;;;;;56.05;11.48;;;;;;;5.50;82.31;100766.25;5106029;28;20038;-66
2021/03/23 07:58:11;;;;;;;83.88;14.35;;;;;;;5.48;82.38;100761.91;5106011;28;20111;-65
2021/03/23 08:00:55;;;;;;;96.35;17.48;;;;;;;5.47;82.56;100763.63;5104450;28;20020;-65
2021/03/23 08:03:40;;;;;;;116.75;15.35;;;;;;;5.45;82.35;100757.56;5105815;28;20022;-65
2021/03/23 08:06:44;;;;;;;76.68;11.90;;;;;;;5.40;82.11;100759.22;5105841;28;20281;-65
2021/03/23 08:09:49;;;;;;;87.05;12.90;;;;;;;5.37;82.02;100766.88;5105986;28;20099;-65
2021/03/23 08:12:37;;;;;;;114.78;14.48;;;;;;;5.33;81.88;100768.50;5101877;28;20047;-65
2021/03/23 08:15:11;;;;;;;97.22;10.98;;;;;;;5.27;82.10;100776.13;5105801;28;20024;-65
2021/03/23 08:18:11;;;;;;;91.30;11.80;;;;;;;5.29;82.00;100777.00;5105905;28;20016;-65
2021/03/23 08:21:07;;;;;;;45.33;9.23;;;;;;;5.23;81.52;100779.44;5105969;28;20541;-65
2021/03/23 08:23:45;;;;;;;39.53;8.98;;;;;;;5.19;81.92;100775.97;5105691;28;20052;-64
2021/03/23 08:26:24;;;;;;;32.88;10.27;;;;;;;5.20;82.15;100786.31;5105719;28;20024;-64
2021/03/23 08:29:14;;;;;;;45.63;9.82;;;;;;;5.31;82.71;100780.47;5105845;28;20469;-65
2021/03/23 08:31:53;;;;;;;88.68;12.95;;;;;;;5.45;82.23;100784.19;5105661;28;20032;-64
2021/03/23 08:34:43;;;;;;;161.57;15.13;;;;;;;5.43;81.21;100778.13;5105443;28;20046;-65
2021/03/23 08:37:17;;;;;;;99.85;12.80;;;;;;;5.33;81.44;100783.97;5105537;28;20028;-66
2021/03/23 08:39:51;;;;;;;78.68;11.25;;;;;;;5.31;81.65;100777.91;5105558;28;20020;-64
2021/03/23 08:42:17;;;;;;;77.50;11.70;;;;;;;5.37;81.48;100790.91;5105457;28;20039;-64
2021/03/23 08:44:51;;;;;;;63.72;10.23;;;;;;;5.29;80.99;100780.44;5105352;28;20023;-63
2021/03/23 08:47:28;;;;;;;135.68;15.02;;;;;;;5.24;81.25;100783.78;5086899;28;20028;-64
2021/03/23 08:49:58;;;;;;;109.90;14.18;;;;;;;5.13;81.28;100783.56;5105231;28;20028;-65
2021/03/23 08:52:27;;;;;;;93.22;12.25;;;;;;;5.10;81.52;100789.50;5105251;28;20050;-64
2021/03/23 08:54:53;;;;;;;81.78;15.23;;;;;;;5.15;81.87;100779.31;5105138;28;20483;-64
2021/03/23 08:57:19;;;;;;;85.95;12.93;;;;;;;5.23;81.51;100789.75;5105509;28;20024;-64
2021/03/23 08:59:48;;;;;;;26.15;8.45;;;;;;;5.20;81.35;100794.03;5104142;28;20092;-65
2021/03/23 09:02:34;;;;;;;29.55;9.60;;;;;;;5.20;81.46;100801.75;5104907;28;20020;-65
2021/03/23 09:04:59;;;;;;;49.50;10.38;;;;;;;5.23;81.46;100794.91;5105038;28;20024;-65
2021/03/23 09:07:30;;;;;;;60.67;11.32;;;;;;;5.17;81.58;100796.53;5104971;28;20031;-66
2021/03/23 09:09:56;;;;;;;48.72;8.77;;;;;;;5.24;81.30;100797.50;5104885;28;20047;-65
2021/03/23 09:12:44;;;;;;;20.40;8.02;;;;;;;5.24;81.39;100791.50;5105136;28;20077;-65
2021/03/23 09:15:16;;;;;;;61.13;10.65;;;;;;;5.20;81.39;100796.59;5105020;28;20931;-66
2021/03/23 09:17:53;;;;;;;18.15;8.63;;;;;;;5.15;80.81;100794.75;5104764;28;20024;-65
2021/03/23 09:20:48;;;;;;;34.47;8.05;;;;;;;5.13;81.19;100792.16;5104809;28;20031;-65
2021/03/23 09:23:16;;;;;;;33.30;8.18;;;;;;;5.06;81.21;100793.72;5086833;28;20075;-65
2021/03/23 09:25:45;;;;;;;36.70;8.52;;;;;;;5.07;81.38;100794.59;5104488;28;20031;-67
2021/03/23 09:28:32;;;;;;;19.73;7.35;;;;;;;5.18;81.51;100797.38;5104718;28;20032;-64
2021/03/23 09:31:04;;;;;;;25.13;5.97;;;;;;;5.29;81.61;100793.31;5104414;28;20032;-66
2021/03/23 09:33:49;;;;;;;19.50;7.78;;;;;;;5.31;81.05;100799.38;5085943;28;20042;-65
2021/03/23 09:36:28;;;;;;;18.30;6.80;;;;;;;5.36;81.12;100788.28;5104409;28;20111;-65
2021/03/23 09:39:14;;;;;;;28.52;7.07;;;;;;;5.30;80.54;100789.91;5104534;28;20114;-66
2021/03/23 09:41:40;;;;;;;19.23;7.55;;;;;;;5.26;80.82;100790.69;5104480;28;20058;-65
2021/03/23 09:44:05;;;;;;;22.00;7.63;;;;;;;5.31;80.93;100788.19;5104421;28;20027;-66
2021/03/23 09:46:34;;;;;;;24.50;7.93;;;;;;;5.39;80.82;100793.50;5103856;28;20050;-65
2021/03/23 09:49:11;;;;;;;16.42;8.07;;;;;;;5.41;80.62;100802.13;5103939;28;20057;-65
2021/03/23 09:52:06;;;;;;;17.23;8.10;;;;;;;5.50;80.60;100801.41;5104284;28;20108;-65
2021/03/23 09:55:02;;;;;;;19.58;7.40;;;;;;;5.53;80.37;100807.50;5095901;28;20051;-65
2021/03/23 09:57:32;;;;;;;22.90;8.50;;;;;;;5.54;80.27;100809.22;5082141;28;20093;-65
2021/03/23 09:59:59;;;;;;;20.20;8.38;;;;;;;5.60;80.29;100802.47;5104209;28;20016;-65
2021/03/23 10:02:36;;;;;;;23.40;8.07;;;;;;;5.63;79.92;100810.25;5085228;28;20035;-66
2021/03/23 10:05:30;;;;;;;20.65;8.73;;;;;;;5.55;79.26;100808.41;5103830;28;20097;-65
2021/03/23 10:08:16;;;;;;;18.23;8.10;;;;;;;5.50;79.49;100796.28;5103985;28;20063;-64
2021/03/23 10:10:41;;;;;;;19.13;6.45;;;;;;;5.52;79.24;100799.75;5103668;28;20052;-66
2021/03/23 10:13:29;;;;;;;24.08;7.22;;;;;;;5.50;79.28;100796.28;5103765;28;20020;-66
2021/03/23 10:15:56;;;;;;;19.10;8.02;;;;;;;5.53;79.20;100794.63;5103718;28;20016;-65
2021/03/23 10:18:28;;;;;;;21.30;8.30;;;;;;;5.51;79.40;100775.69;5085031;28;20522;-65
2021/03/23 10:20:59;;;;;;;19.65;9.20;;;;;;;5.62;79.13;100793.94;5103966;28;20040;-65
2021/03/23 10:23:26;;;;;;;31.60;7.67;;;;;;;5.66;79.48;100790.56;5103552;28;20055;-65
2021/03/23 10:25:59;;;;;;;26.92;8.15;;;;;;;5.70;79.00;100792.34;5103568;28;20051;-66
2021/03/23 10:28:40;;;;;;;17.58;6.47;;;;;;;5.73;79.09;100789.00;5103592;28;20062;-65
2021/03/23 10:31:07;;;;;;;12.60;7.22;;;;;;;5.77;78.83;100793.34;5103518;28;20020;-66
2021/03/23 10:33:37;;;;;;;14.88;8.02;;;;;;;5.86;79.18;100797.81;5103335;28;20115;-66
2021/03/23 10:36:06;;;;;;;19.73;7.32;;;;;;;5.93;78.50;100784.16;5103421;28;20028;-66
2021/03/23 10:38:32;;;;;;;15.65;6.75;;;;;;;5.99;78.32;100798.00;5103466;28;20043;-66
2021/03/23 10:41:22;;;;;;;12.55;6.35;;;;;;;5.96;78.08;100788.50;5103661;28;20028;-66
2021/03/23 10:43:52;;;;;;;12.90;6.00;;;;;;;5.95;77.33;100802.22;5103401;28;20031;-66
2021/03/23 10:46:40;;;;;;;11.65;5.75;;;;;;;5.96;77.88;100803.97;5103239;28;20028;-66
2021/03/23 10:49:28;;;;;;;12.45;6.05;;;;;;;6.02;77.08;100803.22;5103338;28;20029;-66
2021/03/23 10:51:55;;;;;;;15.82;5.57;;;;;;;5.95;76.63;100804.81;5103595;28;20070;-66
2021/03/23 10:54:23;;;;;;;13.85;6.07;;;;;;;5.92;76.58;100802.19;5103421;28;20520;-66
2021/03/23 10:56:55;;;;;;;17.73;6.90;;;;;;;5.88;76.75;100806.41;5103288;28;20031;-66
2021/03/23 10:59:20;;;;;;;11.25;6.53;;;;;;;5.95;76.92;100807.38;5085496;28;20137;-65
2021/03/23 11:02:04;;;;;;;15.38;6.63;;;;;;;6.00;77.26;100810.03;5102807;28;20024;-66
2021/03/23 11:04:31;;;;;;;18.27;7.57;;;;;;;6.18;77.41;100818.09;5103377;28;20026;-65
2021/03/23 11:07:16;;;;;;;17.80;7.28;;;;;;;6.29;76.94;100807.13;5103073;28;20023;-66
2021/03/23 11:09:42;;;;;;;17.08;7.43;;;;;;;6.31;76.05;100819.19;5103163;28;20044;-65
2021/03/23 11:12:07;;;;;;;15.48;6.88;;;;;;;6.29;76.35;100807.13;5103327;28;20047;-66
2021/03/23 11:14:33;;;;;;;17.10;6.03;;;;;;;6.28;75.96;100815.69;5103170;28;20419;-66
2021/03/23 11:17:00;;;;;;;16.50;6.38;;;;;;;6.30;75.75;100821.72;5102722;28;20027;-66
2021/03/23 11:19:38;;;;;;;12.65;6.22;;;;;;;6.29;75.59;100812.28;5103226;28;20040;-65
2021/03/23 11:22:05;;;;;;;12.20;5.43;;;;;;;6.37;75.03;100808.13;5102784;28;20074;-65
2021/03/23 11:24:32;;;;;;;16.73;6.53;;;;;;;6.48;74.85;100815.13;5107099;28;20045;-65
2021/03/23 11:27:00;;;;;;;16.48;6.70;;;;;;;6.48;74.76;100818.59;5088357;28;20031;-65
2021/03/23 11:29:26;;;;;;;15.07;6.25;;;;;;;6.56;74.68;100811.84;5106712;28;20417;-65
2021/03/23 11:31:52;;;;;;;15.00;6.78;;;;;;;6.67;75.08;100819.72;5106293;28;20084;-64
2021/03/23 11:34:18;;;;;;;15.45;5.82;;;;;;;6.73;74.61;100820.63;5088544;28;20019;-65
2021/03/23 11:36:43;;;;;;;13.65;5.25;;;;;;;6.71;73.86;100810.28;5106538;28;20070;-65
2021/03/23 11:39:09;;;;;;;21.30;6.20;;;;;;;6.69;73.43;100817.16;5106868;28;20062;-65